Weather at Portimão Airport

Public forecast

Using degrees Celsius for public forecast. Weather courtesy of forecast.io.

Closest aviation weather report (METAR) to Portimão Airport

Closest report is Faro Airport, 30.7 nm (56.8 km) ESE.

2024/06/19 16:00 (retrieved 16 minutes ago)

LPFR 191600Z 24019KT 9999 FEW020 20/14 Q1015

Closest aviation forecast (TAF) to Portimão Airport

Closest forecast is Faro Airport, 30.7 nm (56.8 km) ESE.

2024/06/19 12:18 (retrieved 4 hours ago)

TAF LPFR 191100Z 1912/2012 25020KT 9999 FEW045 TEMPO 1912/1918 8000 SHRA BKN015 FEW025CB BECMG 1918/1920 32010KT SCT030 TEMPO 2003/2009 BKN015 BECMG 2010/2012 25020KT FEW040